sensor_id;sensor_type;location;lat;lon;timestamp;pressure;altitude;pressure_sealevel;temperature
69857;BMP280;57147;53.582;10.112;2023-12-14T00:03:56;100673.22;;;4.73
69857;BMP280;57147;53.582;10.112;2023-12-14T00:08:56;100652.97;;;4.74
69857;BMP280;57147;53.582;10.112;2023-12-14T00:13:56;100666.34;;;4.67
69857;BMP280;57147;53.582;10.112;2023-12-14T00:18:57;100679.78;;;4.71
69857;BMP280;57147;53.582;10.112;2023-12-14T00:23:57;100694.50;;;4.72
69857;BMP280;57147;53.582;10.112;2023-12-14T00:28:57;100697.63;;;4.69
69857;BMP280;57147;53.582;10.112;2023-12-14T00:33:57;100697.94;;;4.72
69857;BMP280;57147;53.582;10.112;2023-12-14T00:38:58;100698.72;;;4.73
69857;BMP280;57147;53.582;10.112;2023-12-14T00:43:58;100713.53;;;4.79
69857;BMP280;57147;53.582;10.112;2023-12-14T00:48:58;100723.44;;;4.72
69857;BMP280;57147;53.582;10.112;2023-12-14T00:53:58;100741.28;;;4.70
69857;BMP280;57147;53.582;10.112;2023-12-14T00:58:59;100750.22;;;4.69
69857;BMP280;57147;53.582;10.112;2023-12-14T01:04:00;100750.22;;;4.69
69857;BMP280;57147;53.582;10.112;2023-12-14T01:09:00;100751.88;;;4.75
69857;BMP280;57147;53.582;10.112;2023-12-14T01:14:00;100761.38;;;4.76
69857;BMP280;57147;53.582;10.112;2023-12-14T01:19:01;100759.47;;;4.71
69857;BMP280;57147;53.582;10.112;2023-12-14T01:24:01;100728.50;;;4.51
69857;BMP280;57147;53.582;10.112;2023-12-14T01:29:01;100769.31;;;4.81
69857;BMP280;57147;53.582;10.112;2023-12-14T01:34:01;100767.09;;;4.73
69857;BMP280;57147;53.582;10.112;2023-12-14T01:39:02;100784.06;;;4.87
69857;BMP280;57147;53.582;10.112;2023-12-14T01:44:02;100794.91;;;4.90
69857;BMP280;57147;53.582;10.112;2023-12-14T01:49:02;100805.09;;;4.87
69857;BMP280;57147;53.582;10.112;2023-12-14T01:54:03;100813.56;;;4.89
69857;BMP280;57147;53.582;10.112;2023-12-14T01:59:03;100805.72;;;4.94
69857;BMP280;57147;53.582;10.112;2023-12-14T02:04:03;100822.47;;;4.88
69857;BMP280;57147;53.582;10.112;2023-12-14T02:09:05;100819.34;;;4.86
69857;BMP280;57147;53.582;10.112;2023-12-14T02:14:06;100798.63;;;4.68
69857;BMP280;57147;53.582;10.112;2023-12-14T02:19:06;100816.75;;;4.91
69857;BMP280;57147;53.582;10.112;2023-12-14T02:24:07;100825.53;;;5.01
69857;BMP280;57147;53.582;10.112;2023-12-14T02:29:07;100832.59;;;4.96
69857;BMP280;57147;53.582;10.112;2023-12-14T02:34:07;100842.59;;;4.99
69857;BMP280;57147;53.582;10.112;2023-12-14T02:39:08;100845.22;;;4.99
69857;BMP280;57147;53.582;10.112;2023-12-14T02:44:08;100841.56;;;5.00
69857;BMP280;57147;53.582;10.112;2023-12-14T02:49:08;100856.38;;;5.06
69857;BMP280;57147;53.582;10.112;2023-12-14T02:54:08;100851.13;;;5.06
69857;BMP280;57147;53.582;10.112;2023-12-14T02:59:09;100864.22;;;5.01
69857;BMP280;57147;53.582;10.112;2023-12-14T03:04:09;100884.53;;;4.84
69857;BMP280;57147;53.582;10.112;2023-12-14T03:09:09;100864.22;;;5.01
69857;BMP280;57147;53.582;10.112;2023-12-14T03:14:09;100886.84;;;5.02
69857;BMP280;57147;53.582;10.112;2023-12-14T03:19:10;100912.06;;;4.98
69857;BMP280;57147;53.582;10.112;2023-12-14T03:24:10;100899.88;;;4.92
69857;BMP280;57147;53.582;10.112;2023-12-14T03:29:10;100908.97;;;4.79
69857;BMP280;57147;53.582;10.112;2023-12-14T03:34:11;100915.06;;;4.85
69857;BMP280;57147;53.582;10.112;2023-12-14T03:39:11;100918.69;;;4.79
69857;BMP280;57147;53.582;10.112;2023-12-14T03:44:12;100916.41;;;4.87
69857;BMP280;57147;53.582;10.112;2023-12-14T03:49:12;100935.09;;;4.86
69857;BMP280;57147;53.582;10.112;2023-12-14T03:54:12;100940.16;;;4.92
69857;BMP280;57147;53.582;10.112;2023-12-14T03:59:13;100933.78;;;4.88
69857;BMP280;57147;53.582;10.112;2023-12-14T04:04:13;100954.03;;;4.88
69857;BMP280;57147;53.582;10.112;2023-12-14T04:09:13;100949.41;;;4.95
69857;BMP280;57147;53.582;10.112;2023-12-14T04:14:13;100971.41;;;4.89
69857;BMP280;57147;53.582;10.112;2023-12-14T04:19:14;100964.06;;;4.91
69857;BMP280;57147;53.582;10.112;2023-12-14T04:24:14;100972.44;;;4.88
69857;BMP280;57147;53.582;10.112;2023-12-14T04:29:14;100971.47;;;4.94
69857;BMP280;57147;53.582;10.112;2023-12-14T04:34:14;100972.31;;;4.99
69857;BMP280;57147;53.582;10.112;2023-12-14T04:39:15;100983.66;;;5.00
69857;BMP280;57147;53.582;10.112;2023-12-14T04:44:15;100977.78;;;4.93
69857;BMP280;57147;53.582;10.112;2023-12-14T04:49:15;100996.25;;;4.98
69857;BMP280;57147;53.582;10.112;2023-12-14T04:54:16;100995.78;;;5.01
69857;BMP280;57147;53.582;10.112;2023-12-14T04:59:16;101023.06;;;4.95
69857;BMP280;57147;53.582;10.112;2023-12-14T05:04:17;101030.41;;;4.93
69857;BMP280;57147;53.582;10.112;2023-12-14T05:09:18;101021.41;;;4.89
69857;BMP280;57147;53.582;10.112;2023-12-14T05:14:18;101019.22;;;5.02
69857;BMP280;57147;53.582;10.112;2023-12-14T05:19:18;101028.38;;;5.00
69857;BMP280;57147;53.582;10.112;2023-12-14T05:24:18;101039.47;;;5.02
69857;BMP280;57147;53.582;10.112;2023-12-14T05:29:18;101049.38;;;4.95
69857;BMP280;57147;53.582;10.112;2023-12-14T05:34:19;101062.13;;;4.86
69857;BMP280;57147;53.582;10.112;2023-12-14T05:39:19;101057.06;;;4.80
69857;BMP280;57147;53.582;10.112;2023-12-14T05:44:19;101070.81;;;4.87
69857;BMP280;57147;53.582;10.112;2023-12-14T05:49:20;101049.41;;;4.78
69857;BMP280;57147;53.582;10.112;2023-12-14T05:54:20;101055.88;;;4.71
69857;BMP280;57147;53.582;10.112;2023-12-14T05:59:20;101090.47;;;4.79
69857;BMP280;57147;53.582;10.112;2023-12-14T06:04:20;101091.84;;;4.82
69857;BMP280;57147;53.582;10.112;2023-12-14T06:09:21;101074.28;;;4.71
69857;BMP280;57147;53.582;10.112;2023-12-14T06:14:21;101087.84;;;4.79
69857;BMP280;57147;53.582;10.112;2023-12-14T06:19:21;101088.56;;;4.75
69857;BMP280;57147;53.582;10.112;2023-12-14T06:24:21;101088.66;;;4.80
69857;BMP280;57147;53.582;10.112;2023-12-14T06:29:22;101093.88;;;4.63
69857;BMP280;57147;53.582;10.112;2023-12-14T06:34:22;101091.19;;;4.75
69857;BMP280;57147;53.582;10.112;2023-12-14T06:39:22;101099.28;;;4.56
69857;BMP280;57147;53.582;10.112;2023-12-14T06:44:22;101078.84;;;4.30
69857;BMP280;57147;53.582;10.112;2023-12-14T06:49:23;101109.19;;;4.49
69857;BMP280;57147;53.582;10.112;2023-12-14T06:54:23;101104.53;;;4.56
69857;BMP280;57147;53.582;10.112;2023-12-14T06:59:23;101109.81;;;4.56
69857;BMP280;57147;53.582;10.112;2023-12-14T07:04:24;101108.31;;;4.60
69857;BMP280;57147;53.582;10.112;2023-12-14T07:09:24;101102.00;;;4.61
69857;BMP280;57147;53.582;10.112;2023-12-14T07:14:24;101108.69;;;4.69
69857;BMP280;57147;53.582;10.112;2023-12-14T07:19:24;101120.59;;;4.72
69857;BMP280;57147;53.582;10.112;2023-12-14T07:24:25;101128.31;;;4.61
69857;BMP280;57147;53.582;10.112;2023-12-14T07:29:25;101151.66;;;4.58
69857;BMP280;57147;53.582;10.112;2023-12-14T07:34:26;101170.63;;;4.60
69857;BMP280;57147;53.582;10.112;2023-12-14T07:39:26;101191.31;;;4.56
69857;BMP280;57147;53.582;10.112;2023-12-14T07:44:26;101195.25;;;4.42
69857;BMP280;57147;53.582;10.112;2023-12-14T07:49:26;101201.09;;;4.44
69857;BMP280;57147;53.582;10.112;2023-12-14T07:54:27;101203.25;;;4.47
69857;BMP280;57147;53.582;10.112;2023-12-14T07:59:27;101197.53;;;4.50
69857;BMP280;57147;53.582;10.112;2023-12-14T08:04:27;101212.94;;;4.58
69857;BMP280;57147;53.582;10.112;2023-12-14T08:09:27;101222.47;;;4.48
69857;BMP280;57147;53.582;10.112;2023-12-14T08:14:28;101230.41;;;4.64
69857;BMP280;57147;53.582;10.112;2023-12-14T08:19:28;101246.84;;;4.72
69857;BMP280;57147;53.582;10.112;2023-12-14T08:24:29;101238.31;;;4.64
69857;BMP280;57147;53.582;10.112;2023-12-14T08:29:29;101260.78;;;4.72
69857;BMP280;57147;53.582;10.112;2023-12-14T08:34:29;101267.06;;;4.83
69857;BMP280;57147;53.582;10.112;2023-12-14T08:39:30;101279.56;;;4.76
69857;BMP280;57147;53.582;10.112;2023-12-14T08:44:30;101288.66;;;4.85
69857;BMP280;57147;53.582;10.112;2023-12-14T08:49:30;101291.78;;;4.82
69857;BMP280;57147;53.582;10.112;2023-12-14T08:54:30;101265.34;;;4.48
69857;BMP280;57147;53.582;10.112;2023-12-14T08:59:31;101247.53;;;4.27
69857;BMP280;57147;53.582;10.112;2023-12-14T09:04:31;101318.88;;;4.82
69857;BMP280;57147;53.582;10.112;2023-12-14T09:09:31;101322.94;;;4.90
69857;BMP280;57147;53.582;10.112;2023-12-14T09:14:32;101331.94;;;4.77
69857;BMP280;57147;53.582;10.112;2023-12-14T09:19:32;101316.00;;;4.84
69857;BMP280;57147;53.582;10.112;2023-12-14T09:24:32;101301.88;;;4.61
69857;BMP280;57147;53.582;10.112;2023-12-14T09:29:33;101345.88;;;5.06
69857;BMP280;57147;53.582;10.112;2023-12-14T09:34:33;101366.84;;;5.01
69857;BMP280;57147;53.582;10.112;2023-12-14T09:39:33;101376.22;;;5.09
69857;BMP280;57147;53.582;10.112;2023-12-14T09:44:35;101384.69;;;4.99
69857;BMP280;57147;53.582;10.112;2023-12-14T09:49:35;101372.25;;;4.94
69857;BMP280;57147;53.582;10.112;2023-12-14T09:54:35;101377.00;;;5.09
69857;BMP280;57147;53.582;10.112;2023-12-14T09:59:38;101378.84;;;5.09
69857;BMP280;57147;53.582;10.112;2023-12-14T10:04:38;101395.47;;;5.26
69857;BMP280;57147;53.582;10.112;2023-12-14T10:09:38;101406.03;;;5.14
69857;BMP280;57147;53.582;10.112;2023-12-14T10:14:38;101409.97;;;5.00
69857;BMP280;57147;53.582;10.112;2023-12-14T10:19:42;101414.28;;;5.18
69857;BMP280;57147;53.582;10.112;2023-12-14T10:24:46;101419.03;;;4.92
69857;BMP280;57147;53.582;10.112;2023-12-14T10:29:47;101434.47;;;4.89
69857;BMP280;57147;53.582;10.112;2023-12-14T10:34:47;101439.75;;;4.89
69857;BMP280;57147;53.582;10.112;2023-12-14T10:39:49;101448.22;;;4.91
69857;BMP280;57147;53.582;10.112;2023-12-14T10:44:52;101464.91;;;5.08
69857;BMP280;57147;53.582;10.112;2023-12-14T10:49:53;101484.22;;;5.02
69857;BMP280;57147;53.582;10.112;2023-12-14T10:55:00;101479.66;;;4.97
69857;BMP280;57147;53.582;10.112;2023-12-14T11:00:03;101477.59;;;4.99
69857;BMP280;57147;53.582;10.112;2023-12-14T11:05:05;101508.03;;;5.07
69857;BMP280;57147;53.582;10.112;2023-12-14T11:10:05;101497.03;;;5.22
69857;BMP280;57147;53.582;10.112;2023-12-14T11:15:06;101527.25;;;5.19
69857;BMP280;57147;53.582;10.112;2023-12-14T11:20:25;101531.69;;;5.30
69857;BMP280;57147;53.582;10.112;2023-12-14T11:25:25;101539.34;;;5.44
69857;BMP280;57147;53.582;10.112;2023-12-14T11:30:25;101556.63;;;5.39
69857;BMP280;57147;53.582;10.112;2023-12-14T11:35:26;101548.69;;;5.51
69857;BMP280;57147;53.582;10.112;2023-12-14T11:40:26;101555.13;;;5.55
69857;BMP280;57147;53.582;10.112;2023-12-14T11:45:27;101573.44;;;5.62
69857;BMP280;57147;53.582;10.112;2023-12-14T11:50:27;101594.06;;;5.53
69857;BMP280;57147;53.582;10.112;2023-12-14T11:55:28;101577.38;;;5.36
69857;BMP280;57147;53.582;10.112;2023-12-14T12:00:29;101577.44;;;5.53
69857;BMP280;57147;53.582;10.112;2023-12-14T12:05:43;101582.25;;;5.56
69857;BMP280;57147;53.582;10.112;2023-12-14T12:10:44;101590.47;;;5.71
69857;BMP280;57147;53.582;10.112;2023-12-14T12:15:45;101592.81;;;5.84
69857;BMP280;57147;53.582;10.112;2023-12-14T12:20:45;101599.91;;;5.84
69857;BMP280;57147;53.582;10.112;2023-12-14T12:25:46;101599.19;;;5.71
69857;BMP280;57147;53.582;10.112;2023-12-14T12:30:46;101609.53;;;5.78
69857;BMP280;57147;53.582;10.112;2023-12-14T12:35:46;101614.25;;;5.76
69857;BMP280;57147;53.582;10.112;2023-12-14T12:40:46;101620.06;;;5.50
69857;BMP280;57147;53.582;10.112;2023-12-14T12:45:47;101617.53;;;5.55
69857;BMP280;57147;53.582;10.112;2023-12-14T12:50:47;101631.66;;;5.37
69857;BMP280;57147;53.582;10.112;2023-12-14T12:55:47;101621.91;;;5.14
69857;BMP280;57147;53.582;10.112;2023-12-14T13:00:47;101616.31;;;5.22
69857;BMP280;57147;53.582;10.112;2023-12-14T13:05:48;101624.88;;;5.29
69857;BMP280;57147;53.582;10.112;2023-12-14T13:10:48;101599.25;;;5.36
69857;BMP280;57147;53.582;10.112;2023-12-14T13:15:48;101614.00;;;5.49
69857;BMP280;57147;53.582;10.112;2023-12-14T13:20:48;101648.22;;;5.37
69857;BMP280;57147;53.582;10.112;2023-12-14T13:25:49;101646.19;;;5.39
69857;BMP280;57147;53.582;10.112;2023-12-14T13:30:49;101640.66;;;5.53
69857;BMP280;57147;53.582;10.112;2023-12-14T13:35:49;101652.94;;;5.47
69857;BMP280;57147;53.582;10.112;2023-12-14T13:40:49;101661.06;;;5.46
69857;BMP280;57147;53.582;10.112;2023-12-14T13:45:50;101679.38;;;5.41
69857;BMP280;57147;53.582;10.112;2023-12-14T13:50:50;101692.31;;;5.19
69857;BMP280;57147;53.582;10.112;2023-12-14T13:55:50;101694.50;;;5.33
69857;BMP280;57147;53.582;10.112;2023-12-14T14:00:51;101717.19;;;5.34
69857;BMP280;57147;53.582;10.112;2023-12-14T14:05:51;101722.53;;;5.28
69857;BMP280;57147;53.582;10.112;2023-12-14T14:10:51;101733.19;;;5.21
69857;BMP280;57147;53.582;10.112;2023-12-14T14:15:51;101722.38;;;5.11
69857;BMP280;57147;53.582;10.112;2023-12-14T14:20:52;101738.91;;;5.18
69857;BMP280;57147;53.582;10.112;2023-12-14T14:25:52;101745.34;;;5.22
69857;BMP280;57147;53.582;10.112;2023-12-14T14:30:52;101768.22;;;5.22
69857;BMP280;57147;53.582;10.112;2023-12-14T14:35:53;101774.50;;;5.21
69857;BMP280;57147;53.582;10.112;2023-12-14T14:40:53;101770.06;;;5.21
69857;BMP280;57147;53.582;10.112;2023-12-14T14:45:53;101803.31;;;5.04
69857;BMP280;57147;53.582;10.112;2023-12-14T14:50:54;101794.22;;;5.00
69857;BMP280;57147;53.582;10.112;2023-12-14T14:55:55;101798.19;;;5.09
69857;BMP280;57147;53.582;10.112;2023-12-14T15:00:55;101820.91;;;5.03
69857;BMP280;57147;53.582;10.112;2023-12-14T15:05:55;101830.22;;;5.06
69857;BMP280;57147;53.582;10.112;2023-12-14T15:10:56;101838.41;;;4.98
69857;BMP280;57147;53.582;10.112;2023-12-14T15:15:56;101832.00;;;4.94
69857;BMP280;57147;53.582;10.112;2023-12-14T15:20:56;101842.06;;;4.97
69857;BMP280;57147;53.582;10.112;2023-12-14T15:25:56;101851.56;;;4.98
69857;BMP280;57147;53.582;10.112;2023-12-14T15:30:57;101852.72;;;5.02
69857;BMP280;57147;53.582;10.112;2023-12-14T15:35:57;101849.22;;;5.08
69857;BMP280;57147;53.582;10.112;2023-12-14T15:40:57;101859.75;;;5.08
69857;BMP280;57147;53.582;10.112;2023-12-14T15:45:58;101861.78;;;5.06
69857;BMP280;57147;53.582;10.112;2023-12-14T15:50:58;101866.69;;;5.02
69857;BMP280;57147;53.582;10.112;2023-12-14T15:55:59;101866.00;;;4.95
69857;BMP280;57147;53.582;10.112;2023-12-14T16:00:59;101872.59;;;5.16
69857;BMP280;57147;53.582;10.112;2023-12-14T16:06:00;101878.25;;;5.01
69857;BMP280;57147;53.582;10.112;2023-12-14T16:11:00;101885.66;;;4.93
69857;BMP280;57147;53.582;10.112;2023-12-14T16:16:00;101891.78;;;4.87
69857;BMP280;57147;53.582;10.112;2023-12-14T16:21:01;101859.50;;;4.61
69857;BMP280;57147;53.582;10.112;2023-12-14T16:26:01;101894.72;;;4.60
69857;BMP280;57147;53.582;10.112;2023-12-14T16:31:06;101894.06;;;4.47
69857;BMP280;57147;53.582;10.112;2023-12-14T16:36:11;101884.34;;;4.47
69857;BMP280;57147;53.582;10.112;2023-12-14T16:41:11;101885.97;;;4.48
69857;BMP280;57147;53.582;10.112;2023-12-14T16:46:16;101885.19;;;4.41
69857;BMP280;57147;53.582;10.112;2023-12-14T16:51:19;101854.13;;;4.13
69857;BMP280;57147;53.582;10.112;2023-12-14T16:56:27;101884.16;;;4.24
69857;BMP280;57147;53.582;10.112;2023-12-14T17:01:28;101883.84;;;4.14
69857;BMP280;57147;53.582;10.112;2023-12-14T17:06:28;101897.16;;;4.19
69857;BMP280;57147;53.582;10.112;2023-12-14T17:11:28;101903.53;;;4.05
69857;BMP280;57147;53.582;10.112;2023-12-14T17:16:28;101927.59;;;4.02
69857;BMP280;57147;53.582;10.112;2023-12-14T17:21:29;101955.13;;;3.99
69857;BMP280;57147;53.582;10.112;2023-12-14T17:26:29;101966.91;;;3.90
69857;BMP280;57147;53.582;10.112;2023-12-14T17:31:29;101968.91;;;3.94
69857;BMP280;57147;53.582;10.112;2023-12-14T17:36:29;101961.03;;;3.94
69857;BMP280;57147;53.582;10.112;2023-12-14T17:41:30;101981.94;;;4.08
69857;BMP280;57147;53.582;10.112;2023-12-14T17:46:30;101974.81;;;4.15
69857;BMP280;57147;53.582;10.112;2023-12-14T17:51:30;101982.88;;;4.20
69857;BMP280;57147;53.582;10.112;2023-12-14T17:56:30;101973.72;;;4.29
69857;BMP280;57147;53.582;10.112;2023-12-14T18:01:31;101972.69;;;4.30
69857;BMP280;57147;53.582;10.112;2023-12-14T18:06:31;101955.41;;;4.16
69857;BMP280;57147;53.582;10.112;2023-12-14T18:11:31;101992.66;;;4.38
69857;BMP280;57147;53.582;10.112;2023-12-14T18:16:32;102006.97;;;4.42
69857;BMP280;57147;53.582;10.112;2023-12-14T18:21:32;102011.00;;;4.44
69857;BMP280;57147;53.582;10.112;2023-12-14T18:26:35;102014.22;;;4.46
69857;BMP280;57147;53.582;10.112;2023-12-14T18:31:35;102023.16;;;4.45
69857;BMP280;57147;53.582;10.112;2023-12-14T18:36:36;102031.63;;;4.47
69857;BMP280;57147;53.582;10.112;2023-12-14T18:41:36;102058.25;;;4.57
69857;BMP280;57147;53.582;10.112;2023-12-14T18:46:36;102056.22;;;4.59
69857;BMP280;57147;53.582;10.112;2023-12-14T18:51:36;102061.47;;;4.59
69857;BMP280;57147;53.582;10.112;2023-12-14T18:56:37;102062.28;;;4.60
69857;BMP280;57147;53.582;10.112;2023-12-14T19:01:37;102065.56;;;4.55
69857;BMP280;57147;53.582;10.112;2023-12-14T19:06:37;102061.16;;;4.49
69857;BMP280;57147;53.582;10.112;2023-12-14T19:11:37;102074.53;;;4.41
69857;BMP280;57147;53.582;10.112;2023-12-14T19:16:38;102071.00;;;4.29
69857;BMP280;57147;53.582;10.112;2023-12-14T19:21:38;102095.66;;;4.28
69857;BMP280;57147;53.582;10.112;2023-12-14T19:26:38;102096.09;;;4.25
69857;BMP280;57147;53.582;10.112;2023-12-14T19:31:39;102101.00;;;4.15
69857;BMP280;57147;53.582;10.112;2023-12-14T19:36:39;102110.31;;;4.11
69857;BMP280;57147;53.582;10.112;2023-12-14T19:41:39;102113.19;;;4.03
69857;BMP280;57147;53.582;10.112;2023-12-14T19:46:39;102115.66;;;3.98
69857;BMP280;57147;53.582;10.112;2023-12-14T19:51:40;102116.69;;;3.97
69857;BMP280;57147;53.582;10.112;2023-12-14T19:56:43;102125.00;;;3.80
69857;BMP280;57147;53.582;10.112;2023-12-14T20:01:44;102126.28;;;3.71
69857;BMP280;57147;53.582;10.112;2023-12-14T20:06:44;102123.25;;;3.61
69857;BMP280;57147;53.582;10.112;2023-12-14T20:11:44;102128.72;;;3.53
69857;BMP280;57147;53.582;10.112;2023-12-14T20:16:47;102122.06;;;3.44
69857;BMP280;57147;53.582;10.112;2023-12-14T20:21:48;102131.97;;;3.42
69857;BMP280;57147;53.582;10.112;2023-12-14T20:26:48;102144.09;;;3.30
69857;BMP280;57147;53.582;10.112;2023-12-14T20:31:48;102144.50;;;3.27
69857;BMP280;57147;53.582;10.112;2023-12-14T20:36:49;102141.69;;;3.15
69857;BMP280;57147;53.582;10.112;2023-12-14T20:41:50;102142.09;;;3.05
69857;BMP280;57147;53.582;10.112;2023-12-14T20:46:50;102059.91;;;2.45
69857;BMP280;57147;53.582;10.112;2023-12-14T20:51:50;102153.78;;;2.96
69857;BMP280;57147;53.582;10.112;2023-12-14T20:56:50;102156.59;;;2.88
69857;BMP280;57147;53.582;10.112;2023-12-14T21:01:51;102142.03;;;2.79
69857;BMP280;57147;53.582;10.112;2023-12-14T21:06:51;102164.25;;;2.83
69857;BMP280;57147;53.582;10.112;2023-12-14T21:11:51;102158.19;;;2.76
69857;BMP280;57147;53.582;10.112;2023-12-14T21:16:52;102031.75;;;1.93
69857;BMP280;57147;53.582;10.112;2023-12-14T21:21:52;102170.28;;;2.77
69857;BMP280;57147;53.582;10.112;2023-12-14T21:26:52;102176.34;;;2.71
69857;BMP280;57147;53.582;10.112;2023-12-14T21:31:52;102172.66;;;2.59
69857;BMP280;57147;53.582;10.112;2023-12-14T21:36:56;102176.28;;;2.58
69857;BMP280;57147;53.582;10.112;2023-12-14T21:41:56;102185.97;;;2.50
69857;BMP280;57147;53.582;10.112;2023-12-14T21:46:56;102151.81;;;2.24
69857;BMP280;57147;53.582;10.112;2023-12-14T21:51:57;102193.13;;;2.35
69857;BMP280;57147;53.582;10.112;2023-12-14T21:56:57;102187.91;;;2.35
69857;BMP280;57147;53.582;10.112;2023-12-14T22:01:57;102201.63;;;2.37
69857;BMP280;57147;53.582;10.112;2023-12-14T22:06:58;102188.28;;;2.32
69857;BMP280;57147;53.582;10.112;2023-12-14T22:12:03;102195.94;;;2.27
69857;BMP280;57147;53.582;10.112;2023-12-14T22:17:04;102187.06;;;2.28
69857;BMP280;57147;53.582;10.112;2023-12-14T22:22:04;102192.31;;;2.28
69857;BMP280;57147;53.582;10.112;2023-12-14T22:27:05;102158.53;;;1.99
69857;BMP280;57147;53.582;10.112;2023-12-14T22:32:06;102198.75;;;2.19
69857;BMP280;57147;53.582;10.112;2023-12-14T22:37:06;102212.00;;;2.11
69857;BMP280;57147;53.582;10.112;2023-12-14T22:42:06;102205.13;;;2.10
69857;BMP280;57147;53.582;10.112;2023-12-14T22:47:07;102208.59;;;2.17
69857;BMP280;57147;53.582;10.112;2023-12-14T22:52:07;102226.38;;;2.22
69857;BMP280;57147;53.582;10.112;2023-12-14T22:57:07;102214.88;;;2.29
69857;BMP280;57147;53.582;10.112;2023-12-14T23:02:07;102219.72;;;2.32
69857;BMP280;57147;53.582;10.112;2023-12-14T23:07:08;102231.03;;;2.33
69857;BMP280;57147;53.582;10.112;2023-12-14T23:12:08;102237.28;;;2.32
69857;BMP280;57147;53.582;10.112;2023-12-14T23:17:08;102235.84;;;2.29
69857;BMP280;57147;53.582;10.112;2023-12-14T23:22:08;102238.91;;;2.26
69857;BMP280;57147;53.582;10.112;2023-12-14T23:27:09;102236.28;;;2.26
69857;BMP280;57147;53.582;10.112;2023-12-14T23:32:09;102237.47;;;2.30
69857;BMP280;57147;53.582;10.112;2023-12-14T23:37:09;102242.78;;;2.43
69857;BMP280;57147;53.582;10.112;2023-12-14T23:42:09;102239.13;;;2.38
69857;BMP280;57147;53.582;10.112;2023-12-14T23:47:10;102231.47;;;2.36
69857;BMP280;57147;53.582;10.112;2023-12-14T23:52:10;102232.31;;;2.43
69857;BMP280;57147;53.582;10.112;2023-12-14T23:57:10;102234.94;;;2.43
